createdAt,value
2017-09-03T00:01:47.764Z,21.95
2017-09-03T00:04:15.324Z,19.02
2017-09-03T00:06:42.870Z,20.23
2017-09-03T00:09:10.444Z,20.65
2017-09-03T00:11:37.989Z,18.83
2017-09-03T00:14:05.531Z,19.35
2017-09-03T00:16:33.091Z,16.52
2017-09-03T00:19:00.649Z,17.20
2017-09-03T00:21:28.190Z,16.50
2017-09-03T00:23:55.750Z,16.15
2017-09-03T00:26:23.320Z,16.25
2017-09-03T00:28:50.882Z,17.00
2017-09-03T00:31:18.441Z,18.83
2017-09-03T00:33:45.990Z,21.12
2017-09-03T00:36:13.548Z,16.55
2017-09-03T00:38:41.098Z,18.70
2017-09-03T00:41:08.658Z,18.00
2017-09-03T00:43:36.216Z,20.45
2017-09-03T00:46:03.756Z,22.23
2017-09-03T00:48:31.325Z,19.80
2017-09-03T00:50:58.863Z,17.40
2017-09-03T00:53:26.413Z,19.52
2017-09-03T00:55:53.957Z,20.95
2017-09-03T00:58:21.504Z,21.20
2017-09-03T01:00:49.029Z,21.10
2017-09-03T01:03:16.570Z,20.10
2017-09-03T01:05:44.125Z,23.77
2017-09-03T01:08:11.687Z,20.62
2017-09-03T01:10:39.251Z,18.73
2017-09-03T01:13:06.798Z,22.65
2017-09-03T01:15:34.322Z,19.75
2017-09-03T01:18:01.846Z,36.42
2017-09-03T01:20:29.397Z,20.10
2017-09-03T01:22:56.938Z,20.40
2017-09-03T01:25:24.492Z,24.87
2017-09-03T01:27:52.019Z,18.55
2017-09-03T01:30:19.576Z,20.48
2017-09-03T01:32:47.136Z,22.55
2017-09-03T01:35:14.688Z,23.27
2017-09-03T01:37:42.257Z,23.70
2017-09-03T01:40:09.846Z,18.40
2017-09-03T01:42:37.425Z,21.70
2017-09-03T01:45:04.972Z,24.80
2017-09-03T01:47:32.545Z,24.58
2017-09-03T01:50:00.116Z,27.95
2017-09-03T01:52:27.688Z,22.60
2017-09-03T01:54:55.224Z,24.15
2017-09-03T01:57:22.785Z,23.55
2017-09-03T01:59:50.320Z,24.55
2017-09-03T02:02:17.857Z,19.67
2017-09-03T02:04:45.415Z,24.08
2017-09-03T02:07:12.965Z,22.25
2017-09-03T02:09:40.505Z,23.10
2017-09-03T02:12:08.042Z,23.48
2017-09-03T02:14:35.594Z,21.30
2017-09-03T02:17:03.266Z,31.58
2017-09-03T02:19:30.833Z,22.50
2017-09-03T02:21:58.405Z,31.48
2017-09-03T02:24:25.936Z,17.95
2017-09-03T02:26:53.489Z,24.50
2017-09-03T02:29:21.044Z,25.83
2017-09-03T02:31:48.633Z,25.92
2017-09-03T02:34:16.171Z,27.67
2017-09-03T02:36:43.772Z,28.95
2017-09-03T02:39:11.314Z,24.60
2017-09-03T02:41:38.844Z,24.52
2017-09-03T02:44:06.415Z,22.75
2017-09-03T02:46:33.945Z,22.85
2017-09-03T02:49:01.501Z,21.35
2017-09-03T02:51:29.050Z,23.80
2017-09-03T02:53:56.621Z,23.75
2017-09-03T02:56:24.160Z,24.70
2017-09-03T02:58:51.705Z,30.33
2017-09-03T03:01:20.286Z,20.92
2017-09-03T03:03:47.923Z,23.95
2017-09-03T03:06:15.466Z,24.50
2017-09-03T03:08:43.016Z,25.65
2017-09-03T03:11:10.561Z,26.87
2017-09-03T03:13:38.103Z,23.35
2017-09-03T03:16:05.649Z,19.58
2017-09-03T03:18:33.283Z,22.13
2017-09-03T03:21:00.834Z,22.92
2017-09-03T03:23:28.426Z,19.92
2017-09-03T03:25:55.956Z,23.10
2017-09-03T03:28:23.529Z,26.67
2017-09-03T03:30:51.068Z,22.10
2017-09-03T03:33:18.629Z,22.02
2017-09-03T03:35:46.207Z,22.70
2017-09-03T03:38:13.778Z,24.40
2017-09-03T03:40:41.334Z,19.52
2017-09-03T03:43:08.868Z,23.20
2017-09-03T03:45:36.428Z,21.55
2017-09-03T03:48:03.966Z,25.83
2017-09-03T03:50:31.525Z,19.62
2017-09-03T03:52:59.093Z,22.23
2017-09-03T03:55:26.645Z,24.10
2017-09-03T03:57:54.239Z,20.08
2017-09-03T04:00:21.813Z,24.17
2017-09-03T04:02:49.353Z,23.70
2017-09-03T04:05:16.880Z,23.50
2017-09-03T04:07:44.444Z,21.12
2017-09-03T04:10:11.996Z,21.30
2017-09-03T04:12:39.531Z,22.02
2017-09-03T04:15:07.094Z,23.77
2017-09-03T04:17:34.619Z,17.42
2017-09-03T04:20:02.170Z,22.15
2017-09-03T04:22:29.737Z,18.98
2017-09-03T04:24:57.286Z,20.00
2017-09-03T04:27:24.814Z,18.80
2017-09-03T04:29:52.377Z,18.98
2017-09-03T04:32:19.912Z,21.48
2017-09-03T04:34:47.460Z,21.98
2017-09-03T04:37:15.022Z,20.02
2017-09-03T04:39:42.571Z,19.17
2017-09-03T04:42:10.116Z,19.90
2017-09-03T04:44:37.686Z,19.37
2017-09-03T04:47:05.244Z,24.15
2017-09-03T04:49:32.778Z,19.58
2017-09-03T04:52:00.328Z,15.75
2017-09-03T04:54:27.851Z,16.62
2017-09-03T04:56:55.398Z,16.52
2017-09-03T04:59:22.934Z,19.00
2017-09-03T05:01:50.486Z,15.48
2017-09-03T05:04:18.018Z,15.27
2017-09-03T05:06:45.572Z,15.93
2017-09-03T05:09:13.099Z,15.68
2017-09-03T05:11:40.641Z,18.30
2017-09-03T05:14:08.206Z,19.65
2017-09-03T05:16:35.737Z,17.62
2017-09-03T05:19:03.318Z,17.25
2017-09-03T05:21:30.872Z,16.70
2017-09-03T05:23:58.405Z,14.30
2017-09-03T05:26:25.962Z,15.75
2017-09-03T05:28:53.497Z,14.73
2017-09-03T05:31:21.021Z,15.10
2017-09-03T05:33:48.576Z,17.12
2017-09-03T05:36:16.104Z,17.05
2017-09-03T05:38:43.668Z,12.13
2017-09-03T05:41:11.194Z,12.82
2017-09-03T05:43:38.780Z,14.05
2017-09-03T05:46:06.326Z,13.38
2017-09-03T05:48:33.912Z,15.70
2017-09-03T05:51:01.445Z,13.27
2017-09-03T05:53:29.008Z,14.93
2017-09-03T05:55:56.564Z,12.82
2017-09-03T05:58:24.866Z,12.75
2017-09-03T06:00:52.438Z,13.82
2017-09-03T06:03:19.982Z,12.32
2017-09-03T06:05:47.537Z,16.37
2017-09-03T06:08:15.084Z,12.00
2017-09-03T06:10:42.657Z,10.27
2017-09-03T06:13:10.202Z,10.45
2017-09-03T06:15:37.737Z,12.82
2017-09-03T06:18:05.309Z,12.37
2017-09-03T06:20:32.843Z,14.90
2017-09-03T06:23:00.396Z,10.73
2017-09-03T06:25:27.925Z,12.00
2017-09-03T06:27:55.481Z,10.57
2017-09-03T06:30:23.020Z,9.98
2017-09-03T06:32:50.593Z,10.48
2017-09-03T06:35:18.162Z,11.00
2017-09-03T06:37:45.735Z,12.25
2017-09-03T06:40:13.285Z,11.02
2017-09-03T06:42:40.837Z,9.93
2017-09-03T06:45:08.414Z,9.77
2017-09-03T06:47:35.953Z,12.05
2017-09-03T06:50:03.533Z,9.63
2017-09-03T06:52:31.065Z,8.13
2017-09-03T06:54:58.654Z,11.50
2017-09-03T06:57:26.193Z,9.82
2017-09-03T06:59:53.770Z,9.63
2017-09-03T07:02:21.305Z,10.52
2017-09-03T07:04:48.878Z,9.43
2017-09-03T07:07:16.430Z,11.77
2017-09-03T07:09:43.972Z,8.82
2017-09-03T07:12:11.530Z,9.57
2017-09-03T07:14:39.112Z,8.70
2017-09-03T07:17:06.676Z,13.38
2017-09-03T07:19:34.225Z,9.40
2017-09-03T07:22:01.795Z,10.75
2017-09-03T07:24:29.336Z,8.65
2017-09-03T07:26:56.882Z,10.65
2017-09-03T07:29:24.439Z,9.50
2017-09-03T07:31:51.979Z,8.20
2017-09-03T07:34:19.525Z,8.27
2017-09-03T07:36:47.065Z,9.00
2017-09-03T07:39:14.618Z,7.70
2017-09-03T07:41:42.171Z,8.13
2017-09-03T07:44:09.746Z,7.13
2017-09-03T07:46:37.301Z,8.40
2017-09-03T07:49:04.833Z,9.07
2017-09-03T07:51:32.389Z,7.70
2017-09-03T07:53:59.936Z,7.33
2017-09-03T07:56:27.512Z,6.80
2017-09-03T07:58:55.062Z,8.40
2017-09-03T08:01:22.616Z,7.80
2017-09-03T08:03:50.160Z,6.80
2017-09-03T08:06:17.739Z,8.60
2017-09-03T08:08:45.380Z,8.03
2017-09-03T08:11:13.852Z,9.67
2017-09-03T08:13:41.406Z,9.67
2017-09-03T08:16:08.945Z,11.30
2017-09-03T08:18:36.485Z,9.97
2017-09-03T08:21:04.106Z,13.63
2017-09-03T08:23:31.634Z,9.10
2017-09-03T08:25:59.200Z,10.33
2017-09-03T08:28:26.736Z,11.70
2017-09-03T08:30:54.290Z,9.70
2017-09-03T08:33:21.839Z,10.70
2017-09-03T08:35:49.390Z,11.13
2017-09-03T08:38:16.941Z,13.47
2017-09-03T08:40:44.549Z,13.80
2017-09-03T08:43:12.109Z,14.50
2017-09-03T08:45:39.633Z,13.90
2017-09-03T08:48:07.185Z,13.07
2017-09-03T08:50:34.789Z,12.23
2017-09-03T08:53:02.337Z,11.50
2017-09-03T08:55:29.880Z,11.43
2017-09-03T08:57:57.433Z,11.23
2017-09-03T09:00:24.965Z,12.50
2017-09-03T09:02:52.545Z,13.27
2017-09-03T09:05:20.095Z,11.83
2017-09-03T09:07:47.636Z,11.40
2017-09-03T09:10:15.195Z,11.27
2017-09-03T09:12:42.745Z,10.40
2017-09-03T09:15:10.333Z,11.60
2017-09-03T09:17:37.881Z,10.90
2017-09-03T09:20:05.422Z,9.40
2017-09-03T09:22:32.993Z,10.13
2017-09-03T09:25:00.534Z,9.40
2017-09-03T09:27:28.088Z,10.63
2017-09-03T09:29:55.660Z,9.40
2017-09-03T09:32:23.202Z,8.87
2017-09-03T09:34:50.750Z,10.53
2017-09-03T09:37:18.334Z,9.47
2017-09-03T09:39:45.867Z,9.40
2017-09-03T09:42:13.411Z,9.83
2017-09-03T09:44:40.966Z,7.33
2017-09-03T09:47:08.504Z,7.57
2017-09-03T09:49:36.029Z,7.23
2017-09-03T09:52:03.565Z,7.57
2017-09-03T09:54:31.109Z,6.83
2017-09-03T09:56:58.664Z,7.37
2017-09-03T09:59:26.202Z,7.40
2017-09-03T10:01:53.794Z,5.80
2017-09-03T10:04:21.357Z,5.60
2017-09-03T10:06:48.907Z,6.13
2017-09-03T10:09:16.462Z,8.10
2017-09-03T10:11:44.122Z,6.73
2017-09-03T10:14:11.669Z,6.80
2017-09-03T10:16:39.236Z,7.10
2017-09-03T10:19:07.149Z,6.40
2017-09-03T10:21:34.692Z,6.63
2017-09-03T10:24:02.253Z,6.00
2017-09-03T10:26:29.793Z,5.60
2017-09-03T10:28:57.321Z,5.40
2017-09-03T10:31:24.877Z,4.83
2017-09-03T10:33:52.410Z,5.47
2017-09-03T10:36:20.722Z,4.80
2017-09-03T10:38:48.333Z,6.90
2017-09-03T10:41:15.877Z,6.03
2017-09-03T10:43:43.413Z,7.13
2017-09-03T10:46:10.959Z,6.47
2017-09-03T10:48:38.526Z,6.27
2017-09-03T10:51:06.081Z,5.50
2017-09-03T10:53:33.646Z,4.87
2017-09-03T10:56:01.193Z,4.93
2017-09-03T10:58:28.801Z,6.80
2017-09-03T11:00:56.376Z,4.60
2017-09-03T11:03:23.919Z,4.93
2017-09-03T11:05:52.417Z,4.63
2017-09-03T11:08:19.955Z,6.00
2017-09-03T11:10:47.488Z,7.33
2017-09-03T11:13:15.044Z,7.77
2017-09-03T11:15:42.612Z,8.30
2017-09-03T11:18:10.181Z,5.70
2017-09-03T11:20:37.725Z,8.00
2017-09-03T11:23:05.273Z,6.03
2017-09-03T11:25:32.816Z,7.43
2017-09-03T11:28:00.376Z,5.93
2017-09-03T11:30:27.915Z,8.83
2017-09-03T11:32:55.443Z,8.57
2017-09-03T11:35:23.008Z,9.40
2017-09-03T11:37:50.544Z,9.00
2017-09-03T11:40:18.097Z,9.43
2017-09-03T11:42:45.649Z,8.27
2017-09-03T11:45:13.177Z,8.97
2017-09-03T11:47:40.729Z,7.00
2017-09-03T11:50:08.269Z,7.50
2017-09-03T11:52:35.872Z,6.10
2017-09-03T11:55:03.438Z,6.10
2017-09-03T11:57:31.003Z,6.40
2017-09-03T11:59:58.555Z,6.70
2017-09-03T12:02:26.118Z,5.87
2017-09-03T12:04:53.678Z,7.17
2017-09-03T12:07:21.214Z,4.77
2017-09-03T12:09:48.821Z,4.70
2017-09-03T12:12:16.438Z,3.83
2017-09-03T12:14:44.021Z,4.00
2017-09-03T12:17:11.564Z,3.60
2017-09-03T12:19:40.154Z,4.73
2017-09-03T12:22:07.842Z,6.50
2017-09-03T12:24:35.390Z,7.27
2017-09-03T12:27:02.962Z,6.63
2017-09-03T12:29:30.501Z,7.27
2017-09-03T12:31:58.063Z,6.77
2017-09-03T12:34:25.605Z,8.27
2017-09-03T12:36:53.206Z,7.83
2017-09-03T12:39:20.740Z,8.43
2017-09-03T12:41:48.300Z,7.80
2017-09-03T12:44:15.862Z,10.63
2017-09-03T12:46:43.406Z,8.73
2017-09-03T12:49:10.984Z,8.33
2017-09-03T12:51:38.553Z,5.23
2017-09-03T12:54:06.105Z,4.90
2017-09-03T12:56:33.660Z,3.20
2017-09-03T12:59:01.196Z,3.50
2017-09-03T13:01:28.776Z,3.83
2017-09-03T13:03:57.087Z,4.27
2017-09-03T13:06:24.661Z,2.57
2017-09-03T13:08:52.228Z,2.90
2017-09-03T13:11:19.776Z,3.87
2017-09-03T13:13:47.345Z,3.40
2017-09-03T13:16:14.886Z,2.43
2017-09-03T13:18:42.429Z,3.07
2017-09-03T13:21:09.974Z,3.10
2017-09-03T13:23:37.544Z,4.10
2017-09-03T13:26:05.072Z,3.80
2017-09-03T13:28:32.613Z,4.80
2017-09-03T13:31:00.167Z,2.83
2017-09-03T13:33:27.712Z,2.37
2017-09-03T13:35:55.260Z,2.43
2017-09-03T13:38:22.805Z,2.73
2017-09-03T13:40:50.516Z,1.87
2017-09-03T13:43:18.062Z,1.90
2017-09-03T13:45:45.633Z,1.77
2017-09-03T13:48:13.177Z,1.80
2017-09-03T13:50:40.709Z,1.57
2017-09-03T13:53:08.277Z,3.00
2017-09-03T13:55:35.819Z,1.40
2017-09-03T13:58:03.374Z,2.17
2017-09-03T14:00:30.922Z,2.30
2017-09-03T14:02:58.461Z,2.10
2017-09-03T14:05:26.005Z,2.57
2017-09-03T14:07:53.577Z,2.00
2017-09-03T14:10:21.121Z,2.07
2017-09-03T14:12:48.693Z,1.50
2017-09-03T14:15:16.230Z,2.47
2017-09-03T14:17:44.553Z,1.80
2017-09-03T14:20:12.084Z,1.77
2017-09-03T14:22:39.618Z,1.77
2017-09-03T14:25:07.195Z,3.07
2017-09-03T14:27:34.728Z,1.53
2017-09-03T14:30:02.288Z,3.97
2017-09-03T14:32:29.818Z,1.73
2017-09-03T14:34:57.375Z,1.50
2017-09-03T14:37:24.918Z,3.00
2017-09-03T14:39:52.478Z,1.87
2017-09-03T14:42:20.014Z,1.50
2017-09-03T14:44:47.550Z,2.23
2017-09-03T14:47:15.147Z,2.47
2017-09-03T14:49:42.698Z,2.43
2017-09-03T14:52:10.282Z,1.50
2017-09-03T14:54:37.849Z,2.00
2017-09-03T14:57:05.380Z,1.67
2017-09-03T14:59:32.924Z,1.50
2017-09-03T15:02:00.498Z,1.97
2017-09-03T15:04:28.096Z,6.50
2017-09-03T15:06:56.121Z,1.83
2017-09-03T15:09:23.675Z,1.67
2017-09-03T15:11:51.236Z,1.30
2017-09-03T15:14:18.793Z,1.40
2017-09-03T15:16:47.086Z,1.53
2017-09-03T15:19:14.645Z,2.40
2017-09-03T15:21:42.181Z,1.30
2017-09-03T15:24:10.501Z,1.47
2017-09-03T15:26:38.045Z,1.67
2017-09-03T15:29:05.598Z,1.47
2017-09-03T15:31:33.173Z,1.37
2017-09-03T15:34:01.094Z,1.70
2017-09-03T15:36:28.644Z,1.50
2017-09-03T15:38:56.184Z,1.50
2017-09-03T15:41:23.746Z,1.50
2017-09-03T15:43:51.515Z,1.30
2017-09-03T15:46:19.156Z,1.60
2017-09-03T15:48:46.684Z,1.33
2017-09-03T15:51:14.261Z,1.70
2017-09-03T15:53:41.802Z,1.47
2017-09-03T15:56:09.371Z,1.53
2017-09-03T15:58:36.941Z,1.27
2017-09-03T16:01:04.546Z,1.40
2017-09-03T16:03:32.487Z,1.50
2017-09-03T16:06:00.029Z,1.43
2017-09-03T16:08:27.589Z,2.43
2017-09-03T16:10:55.148Z,1.40
2017-09-03T16:13:22.685Z,1.83
2017-09-03T16:15:50.242Z,3.73
2017-09-03T16:18:17.777Z,1.43
2017-09-03T16:20:45.330Z,2.73
2017-09-03T16:23:12.883Z,1.40
2017-09-03T16:25:40.455Z,1.50
2017-09-03T16:28:07.987Z,1.50
2017-09-03T16:30:36.134Z,1.87
2017-09-03T16:33:03.740Z,1.70
2017-09-03T16:35:31.376Z,1.93
2017-09-03T16:37:58.933Z,1.70
2017-09-03T16:40:26.465Z,1.50
2017-09-03T16:42:54.037Z,3.33
2017-09-03T16:45:21.601Z,1.50
2017-09-03T16:47:49.217Z,1.87
2017-09-03T16:50:16.754Z,2.30
2017-09-03T16:52:44.395Z,1.80
2017-09-03T16:55:12.293Z,3.20
2017-09-03T16:57:39.825Z,2.33
2017-09-03T17:00:07.381Z,1.73
2017-09-03T17:02:34.930Z,1.50
2017-09-03T17:05:02.500Z,1.80
2017-09-03T17:07:30.090Z,3.23
2017-09-03T17:09:57.628Z,1.60
2017-09-03T17:12:25.179Z,2.13
2017-09-03T17:14:52.734Z,2.23
2017-09-03T17:17:20.292Z,2.00
2017-09-03T17:19:47.817Z,2.40
2017-09-03T17:22:15.373Z,2.00
2017-09-03T17:24:42.906Z,2.40
2017-09-03T17:27:10.449Z,2.47
2017-09-03T17:29:38.215Z,2.00
2017-09-03T17:32:05.763Z,3.70
2017-09-03T17:34:33.313Z,2.97
2017-09-03T17:37:01.780Z,2.50
2017-09-03T17:39:46.018Z,3.43
2017-09-03T17:42:14.087Z,2.73
2017-09-03T17:44:41.645Z,2.47
2017-09-03T17:47:13.080Z,4.70
2017-09-03T17:49:40.624Z,2.97
2017-09-03T17:52:08.169Z,2.78
2017-09-03T17:54:35.734Z,2.53
2017-09-03T17:57:03.279Z,3.60
2017-09-03T17:59:30.846Z,2.80
2017-09-03T18:01:58.396Z,2.85
2017-09-03T18:04:25.975Z,3.60
2017-09-03T18:06:53.528Z,4.40
2017-09-03T18:09:21.083Z,3.78
2017-09-03T18:11:48.742Z,4.80
2017-09-03T18:14:16.280Z,4.03
2017-09-03T18:16:43.882Z,3.33
2017-09-03T18:19:11.441Z,3.15
2017-09-03T18:21:39.024Z,3.37
2017-09-03T18:24:06.602Z,3.25
2017-09-03T18:26:34.156Z,8.07
2017-09-03T18:29:02.376Z,3.87
2017-09-03T18:31:30.890Z,3.70
2017-09-03T18:33:58.450Z,4.65
2017-09-03T18:36:26.472Z,4.65
2017-09-03T18:39:01.602Z,5.62
2017-09-03T18:41:29.186Z,8.38
2017-09-03T18:43:59.681Z,5.80
2017-09-03T18:46:28.043Z,5.70
2017-09-03T18:48:55.653Z,6.60
2017-09-03T18:51:23.201Z,5.97
2017-09-03T18:53:50.745Z,6.80
2017-09-03T18:56:29.495Z,7.05
2017-09-03T18:59:09.781Z,6.40
2017-09-03T19:01:37.374Z,6.62
2017-09-03T19:04:04.951Z,6.20
2017-09-03T19:06:32.490Z,8.35
2017-09-03T19:09:00.116Z,8.23
2017-09-03T19:11:27.674Z,8.93
2017-09-03T19:13:55.403Z,11.20
2017-09-03T19:16:22.953Z,11.27
2017-09-03T19:18:50.501Z,10.20
2017-09-03T19:21:18.049Z,8.90
2017-09-03T19:23:45.684Z,11.38
2017-09-03T19:26:13.227Z,8.88
2017-09-03T19:28:40.902Z,13.57
2017-09-03T19:31:08.439Z,6.90
2017-09-03T19:33:35.986Z,7.18
2017-09-03T19:36:03.536Z,7.53
2017-09-03T19:38:31.770Z,8.93
2017-09-03T19:40:59.324Z,7.60
2017-09-03T19:43:26.865Z,7.55
2017-09-03T19:45:54.436Z,7.60
2017-09-03T19:48:22.078Z,8.88
2017-09-03T19:50:49.637Z,8.40
2017-09-03T19:53:17.185Z,8.85
2017-09-03T19:55:44.763Z,7.87
2017-09-03T19:58:12.354Z,8.80
2017-09-03T20:00:39.952Z,10.55
2017-09-03T20:03:07.489Z,10.40
2017-09-03T20:05:35.039Z,9.05
2017-09-03T20:08:02.566Z,9.88
2017-09-03T20:10:30.117Z,8.52
2017-09-03T20:12:57.681Z,8.50
2017-09-03T20:15:25.209Z,9.45
2017-09-03T20:17:52.785Z,9.18
2017-09-03T20:20:20.377Z,8.75
2017-09-03T20:22:47.963Z,9.68
2017-09-03T20:25:15.524Z,10.02
2017-09-03T20:27:43.085Z,9.27
2017-09-03T20:30:10.660Z,7.68
2017-09-03T20:32:38.232Z,12.43
2017-09-03T20:35:05.793Z,9.73
2017-09-03T20:37:33.414Z,9.90
2017-09-03T20:40:00.970Z,10.90
2017-09-03T20:42:28.514Z,9.82
2017-09-03T20:44:56.086Z,10.88
2017-09-03T20:47:23.621Z,11.40
2017-09-03T20:49:51.195Z,11.55
2017-09-03T20:52:18.754Z,11.40
2017-09-03T20:54:46.309Z,13.27
2017-09-03T20:57:13.868Z,11.85
2017-09-03T20:59:41.408Z,13.48
2017-09-03T21:02:08.975Z,12.63
2017-09-03T21:04:36.518Z,11.15
2017-09-03T21:07:04.094Z,13.20
2017-09-03T21:09:31.649Z,12.70
2017-09-03T21:11:59.218Z,13.65
2017-09-03T21:14:26.881Z,12.32
2017-09-03T21:16:54.541Z,12.85
2017-09-03T21:19:22.100Z,13.15
2017-09-03T21:21:49.658Z,11.95
2017-09-03T21:24:17.223Z,11.98
2017-09-03T21:26:44.802Z,13.48
2017-09-03T21:29:12.339Z,10.35
2017-09-03T21:31:39.941Z,9.82
2017-09-03T21:34:07.481Z,13.07
2017-09-03T21:36:35.081Z,11.93
2017-09-03T21:39:02.631Z,9.80
2017-09-03T21:41:30.181Z,13.88
2017-09-03T21:43:57.765Z,12.90
2017-09-03T21:46:25.336Z,10.70
2017-09-03T21:48:53.643Z,11.07
2017-09-03T21:51:21.212Z,11.23
2017-09-03T21:53:48.764Z,11.93
2017-09-03T21:56:16.320Z,11.38
2017-09-03T21:58:43.893Z,10.27
2017-09-03T22:01:11.453Z,12.85
2017-09-03T22:03:39.101Z,10.98
2017-09-03T22:06:06.665Z,12.73
2017-09-03T22:08:34.242Z,12.82
2017-09-03T22:11:01.766Z,14.05
2017-09-03T22:13:29.307Z,11.23
2017-09-03T22:15:56.832Z,10.27
2017-09-03T22:18:24.388Z,12.45
2017-09-03T22:20:51.935Z,10.38
2017-09-03T22:23:19.495Z,10.07
2017-09-03T22:25:47.041Z,12.43
2017-09-03T22:28:14.573Z,11.57
2017-09-03T22:30:42.120Z,10.88
2017-09-03T22:33:09.736Z,10.40
2017-09-03T22:35:37.265Z,9.40
2017-09-03T22:38:04.829Z,10.50
2017-09-03T22:40:32.357Z,10.30
2017-09-03T22:42:59.904Z,13.65
2017-09-03T22:45:27.454Z,11.73
2017-09-03T22:47:54.987Z,12.30
2017-09-03T22:50:22.533Z,11.63
2017-09-03T22:52:50.108Z,13.05
2017-09-03T22:55:17.642Z,12.27
2017-09-03T22:57:45.227Z,11.98
2017-09-03T23:00:12.789Z,14.05
2017-09-03T23:02:40.349Z,11.12
2017-09-03T23:05:07.869Z,12.18
2017-09-03T23:07:35.422Z,11.45
2017-09-03T23:10:02.945Z,10.63
2017-09-03T23:12:30.493Z,11.80
2017-09-03T23:14:58.046Z,12.55
2017-09-03T23:17:25.569Z,11.23
2017-09-03T23:19:53.121Z,11.50
2017-09-03T23:22:20.654Z,11.20
2017-09-03T23:24:48.213Z,11.15
2017-09-03T23:27:15.741Z,10.43
2017-09-03T23:29:43.306Z,11.27
2017-09-03T23:32:10.851Z,11.55
2017-09-03T23:34:38.416Z,11.02
2017-09-03T23:37:05.984Z,10.25
2017-09-03T23:39:33.529Z,11.40
2017-09-03T23:42:01.099Z,10.32
2017-09-03T23:44:28.651Z,11.48
2017-09-03T23:46:56.197Z,10.32
2017-09-03T23:49:23.716Z,9.07
2017-09-03T23:51:51.265Z,10.70
2017-09-03T23:54:18.805Z,12.88
2017-09-03T23:56:46.356Z,13.07
2017-09-03T23:59:13.885Z,11.38
